• Join FlightAware (Why Join?)
  • Login
  • US Flag 
07:33PM EST


 

Airport Tracker/Info


-or-


 

Live Flight TrackerFlight Track Log ✈ SWA561 ✈ 16-Apr-2013 ✈ KLAX - KTUS

Flight Track Log - Related Links

Times and Time Zones

All times are in EDT time to prevent confusion due to time zone crossing. See the SWA561 flight status page for this flight to view local times or setup timezone preferences in your user account.

Time Position Orientation Groundspeed Altitude Reporting Facility
EDT Latitude Longitude Course Direction KTS MPH feet Rate Location/Type
09:30PM 33.9403 -118.5511 260° West 237 273 5,200  Level Los Angeles Center
09:31PM 33.9086 -118.6358 246° West 286 329 9,000 2,460 Climbing Los Angeles Center
09:32PM 33.8269 -118.6336 179° South 309 356 10,400 1,560 Climbing Los Angeles Center
09:33PM 33.7481 -118.5653 144° Southeast 357 411 12,300 2,280 Climbing Los Angeles Center
09:34PM 33.6702 -118.4378 101° East  Level FlightAware Approximate
09:34PM 33.6911 -118.4619 123° Southeast 399 459 15,100  Level Los Angeles Center
09:35PM 33.6878 -118.3325 92° East 402 463 18,600 2,880 Climbing Los Angeles Center
09:36PM 33.6850 -118.1600 91° East 450 518 21,100 2,580 Climbing Los Angeles Center
09:37PM 33.6817 -118.0011 91° East 479 551 24,000 2,520 Climbing Los Angeles Center
09:38PM 33.6778 -117.8342 92° East 497 572 26,300 2,220 Climbing Los Angeles Center
09:39PM 33.6736 -117.6622 92° East 515 593 28,600 2,040 Climbing Los Angeles Center
09:40PM 33.6694 -117.4861 92° East 527 606 30,600 2,040 Climbing Los Angeles Center
09:41PM 33.6631 -117.3078 92° East 533 613 32,900 2,100 Climbing Los Angeles Center
09:42PM 33.6575 -117.0931 92° East 537 618 35,000 1,620 Climbing Los Angeles Center
09:43PM 33.6514 -116.9111 92° East 544 626 36,600 1,620 Climbing Los Angeles Center
09:44PM 33.6475 -116.6914 91° East 546 628 38,700 1,080 Climbing Los Angeles Center
09:45PM 33.6394 -116.5117 93° East 541 623 38,900 60 Climbing Los Angeles Center
09:46PM 33.6103 -116.3400 101° East 524 603 38,900  Level Los Angeles Center
09:47PM 33.5814 -116.1639 101° East 532 612 38,900  Level Los Angeles Center
09:48PM 33.5517 -115.9906 102° East 529 609 38,900  Level Los Angeles Center
09:49PM 33.5228 -115.8178 101° East 526 605 38,900  Level Los Angeles Center
09:50PM 33.4950 -115.6444 101° East 527 606 38,900  Level Los Angeles Center
09:51PM 33.4639 -115.4711 102° East 530 610 38,900  Level Los Angeles Center
09:52PM 33.4286 -115.2647 102° East 527 606 39,000  Climbing Los Angeles Center
09:53PM 33.3986 -115.0931 102° East 527 606 38,900  Descending Los Angeles Center
09:54PM 33.3681 -114.9208 102° East 529 609 39,000  Climbing Los Angeles Center
09:55PM 33.3372 -114.7481 102° East 529 609 38,900 -60 Descending Los Angeles Center
09:56PM 33.3078 -114.5764 102° East 527 606 38,900  Level Los Angeles Center
09:57PM 33.2844 -114.4222 100° East 529 609 39,000  Climbing Albuquerque Center
09:58PM 33.2525 -114.2508 103° East 528 608 38,900 -60 Descending Albuquerque Center
09:59PM 33.2228 -114.0800 102° East 526 605 38,900  Level Albuquerque Center
10:00PM 33.1906 -113.9081 103° East 531 611 38,900 -360 Level Albuquerque Center
10:01PM 33.1594 -113.7358 102° East 530 610 38,200 -840 Descending Albuquerque Center
10:02PM 33.1256 -113.5597 103° East 539 620 37,300 -960 Descending Albuquerque Center
10:03PM 33.0931 -113.3814 102° East 547 629 36,300 -960 Descending Albuquerque Center
10:04PM 33.0581 -113.2028 103° East 550 633 35,400 -840 Descending Albuquerque Center
10:05PM 33.0253 -113.0261 102° East 546 628 34,700 -840 Descending Albuquerque Center
10:07PM 32.9922 -112.8519 103° East 539 620 33,700 -1,080 Descending Albuquerque Center
10:08PM 32.9683 -112.6417 98° East 533 613 32,500 -1,080 Descending Albuquerque Center
10:09PM 32.9467 -112.4692 98° East 526 605 31,600 -960 Descending Albuquerque Center
10:10PM 32.9258 -112.2992 98° East 521 600 30,600 -1,020 Descending Albuquerque Center
10:11PM 32.8919 -112.1269 103° East 521 600 29,600 -1,440 Descending Albuquerque Center
10:12PM 32.8203 -111.9931 122° Southeast 488 562 27,700 -2,100 Descending Albuquerque Center
10:13PM 32.7364 -111.8747 130° Southeast 472 543 25,400 -2,700 Descending Albuquerque Center
10:14PM 32.6564 -111.7636 131° Southeast 451 519 22,200 -3,300 Descending Albuquerque Center
10:14PM 32.6178 -111.7181 135° Southeast 451 519 20,800 -3,420 Descending Albuquerque Center
10:14PM 32.5883 -111.6753 129° Southeast 448 516 19,600 -2,640 Descending Albuquerque Center
10:15PM 32.5761 -111.6542 124° Southeast 445 512 19,100 -3,240 Descending Albuquerque Center
10:15PM 32.5161 -111.5756 132° Southeast 434 499 16,700 -3,000 Descending Albuquerque Center
10:16PM 32.5014 -111.5436 119° Southeast 439 505 16,100 -2,280 Descending Albuquerque Center
10:16PM 32.4742 -111.4453 108° East 423 487 14,400 -2,040 Descending Albuquerque Center
10:17PM 32.4722 -111.4119 94° East 423 487 14,000 -1,800 Descending Albuquerque Center
10:17PM 32.4539 -111.3169 103° East 401 461 12,600 -1,980 Descending Albuquerque Center
10:18PM 32.4483 -111.2650 97° East 402 463 12,000 -1,860 Descending Albuquerque Center
10:18PM 32.4333 -111.1886 103° East 352 405 10,600 -1,560 Descending Albuquerque Center
10:19PM 32.4306 -111.1567 96° East 361 415 10,400 -600 Descending Albuquerque Center
10:19PM 32.4189 -111.0917 102° East 327 376 10,100 -840 Descending Albuquerque Center
10:20PM 32.4150 -111.0525 97° East 334 384 9,600 -1,320 Descending Albuquerque Center
10:20PM 32.4025 -110.9975 105° East 287 330 8,800 -1,200 Descending Albuquerque Center
10:21PM 32.3939 -110.9644 107° East 307 353 8,400 -720 Descending Albuquerque Center
10:21PM 32.3561 -110.9344 146° Southeast 251 289 8,100 -540 Descending Albuquerque Center
10:22PM 32.3436 -110.9136 125° Southeast 260 299 7,900 -600 Descending Albuquerque Center
10:22PM 32.3117 -110.8833 141° Southeast 226 260 7,500 -840 Descending Albuquerque Center
10:23PM 32.3003 -110.8628 123° Southeast 237 273 7,100 -1,140 Descending Albuquerque Center
10:23PM 32.2700 -110.8342 141° Southeast 215 247 6,400 -420 Descending Albuquerque Center
10:24PM 32.2606 -110.8150 120° Southeast 231 266 6,700 -1,140 Climbing Albuquerque Center
10:24PM 32.2244 -110.8314 201° Southwest 194 223 5,300 -1,620 Descending Albuquerque Center
10:25PM 32.1897 -110.8736 226° Southwest 179 206 4,300 -900 Descending Albuquerque Center
10:27PM 32.1569 -110.9128 225° Southwest 133 153 3,400 -720 Descending Albuquerque Center
10:28PM 32.1325 -110.9419 225° Southwest 125 144 2,700 -720 Descending Albuquerque Center